createdAt,value
2018-05-06T00:02:07.701Z,74.04
2018-05-06T00:04:36.867Z,73.97
2018-05-06T00:07:05.271Z,73.97
2018-05-06T00:09:33.529Z,74.05
2018-05-06T00:12:01.112Z,74.23
2018-05-06T00:14:30.208Z,74.16
2018-05-06T00:16:57.773Z,74.08
2018-05-06T00:19:26.377Z,74.18
2018-05-06T00:21:54.035Z,74.20
2018-05-06T00:24:21.610Z,74.11
2018-05-06T00:26:49.437Z,74.30
2018-05-06T00:29:17.587Z,74.48
2018-05-06T00:31:45.170Z,74.45
2018-05-06T00:34:12.736Z,74.41
2018-05-06T00:36:40.359Z,74.43
2018-05-06T00:39:09.054Z,74.52
2018-05-06T00:41:36.767Z,74.42
2018-05-06T00:44:04.456Z,74.36
2018-05-06T00:46:33.395Z,74.30
2018-05-06T00:49:01.168Z,74.46
2018-05-06T00:51:28.742Z,74.52
2018-05-06T00:53:56.569Z,74.29
2018-05-06T00:56:25.423Z,74.43
2018-05-06T00:58:53.195Z,74.20
2018-05-06T01:01:20.963Z,74.28
2018-05-06T01:03:49.586Z,73.81
2018-05-06T01:06:17.742Z,74.17
2018-05-06T01:08:45.758Z,73.96
2018-05-06T01:11:13.495Z,73.95
2018-05-06T01:13:42.236Z,73.88
2018-05-06T01:16:09.998Z,74.05
2018-05-06T01:18:38.567Z,74.03
2018-05-06T01:21:06.140Z,74.37
2018-05-06T01:23:33.719Z,74.50
2018-05-06T01:26:01.525Z,74.77
2018-05-06T01:28:29.615Z,75.20
2018-05-06T01:30:57.207Z,75.30
2018-05-06T01:33:24.789Z,75.41
2018-05-06T01:35:53.329Z,75.80
2018-05-06T01:38:21.023Z,75.45
2018-05-06T01:40:49.432Z,75.62
2018-05-06T01:43:17.027Z,75.48
2018-05-06T01:45:44.820Z,75.38
2018-05-06T01:48:12.804Z,75.64
2018-05-06T01:50:40.872Z,75.39
2018-05-06T01:53:08.473Z,75.50
2018-05-06T01:55:37.087Z,75.72
2018-05-06T01:58:04.753Z,75.88
2018-05-06T02:00:33.363Z,76.10
2018-05-06T02:03:00.977Z,76.20
2018-05-06T02:05:29.370Z,76.52
2018-05-06T02:07:57.502Z,76.27
2018-05-06T02:10:26.090Z,76.67
2018-05-06T02:12:53.682Z,76.76
2018-05-06T02:15:22.167Z,76.78
2018-05-06T02:17:50.574Z,76.76
2018-05-06T02:20:18.163Z,76.95
2018-05-06T02:22:45.869Z,77.02
2018-05-06T02:25:13.695Z,77.03
2018-05-06T02:27:42.459Z,76.98
2018-05-06T02:30:10.403Z,77.22
2018-05-06T02:32:38.076Z,76.88
2018-05-06T02:35:06.303Z,77.13
2018-05-06T02:37:33.938Z,77.10
2018-05-06T02:40:01.938Z,77.17
2018-05-06T02:42:29.526Z,77.21
2018-05-06T02:44:57.188Z,76.98
2018-05-06T02:47:24.825Z,77.21
2018-05-06T02:49:52.562Z,77.35
2018-05-06T02:52:20.233Z,77.36
2018-05-06T02:54:48.478Z,77.31
2018-05-06T02:57:16.040Z,77.10
2018-05-06T02:59:43.892Z,77.32
2018-05-06T03:02:11.527Z,77.22
2018-05-06T03:04:39.388Z,77.37
2018-05-06T03:07:08.135Z,77.22
2018-05-06T03:09:36.524Z,76.95
2018-05-06T03:12:04.101Z,76.58
2018-05-06T03:14:32.078Z,76.19
2018-05-06T03:16:59.698Z,75.80
2018-05-06T03:19:27.953Z,75.50
2018-05-06T03:21:55.666Z,75.22
2018-05-06T03:24:23.492Z,74.78
2018-05-06T03:26:51.834Z,73.89
2018-05-06T03:29:20.224Z,73.03
2018-05-06T03:31:47.764Z,72.06
2018-05-06T03:34:15.951Z,70.90
2018-05-06T03:36:43.688Z,70.15
2018-05-06T03:39:11.664Z,69.92
2018-05-06T03:41:39.213Z,69.65
2018-05-06T03:44:06.855Z,69.40
2018-05-06T03:46:34.443Z,69.83
2018-05-06T03:49:01.999Z,70.14
2018-05-06T03:51:29.563Z,70.41
2018-05-06T03:53:57.150Z,70.32
2018-05-06T03:56:56.870Z,70.30
2018-05-06T03:59:36.271Z,70.37
2018-05-06T04:05:14.764Z,71.04
2018-05-06T04:07:43.338Z,71.33
2018-05-06T04:10:10.896Z,71.45
2018-05-06T04:12:38.515Z,71.47
2018-05-06T04:15:07.056Z,71.36
2018-05-06T04:17:35.438Z,71.15
2018-05-06T04:20:03.018Z,71.03
2018-05-06T04:22:30.566Z,71.00
2018-05-06T04:24:58.164Z,70.92
2018-05-06T04:27:26.168Z,70.60
2018-05-06T04:29:54.615Z,70.49
2018-05-06T04:32:22.467Z,70.38
2018-05-06T04:34:50.809Z,70.06
2018-05-06T04:37:18.391Z,69.81
2018-05-06T04:39:46.629Z,69.40
2018-05-06T04:42:14.294Z,69.37
2018-05-06T04:44:41.841Z,69.28
2018-05-06T04:47:09.412Z,69.13
2018-05-06T04:49:36.958Z,68.87
2018-05-06T04:52:04.504Z,68.83
2018-05-06T04:54:32.747Z,68.76
2018-05-06T04:57:00.324Z,68.72
2018-05-06T04:59:27.867Z,68.38
2018-05-06T05:01:55.533Z,68.47
2018-05-06T05:04:23.087Z,68.15
2018-05-06T05:06:51.448Z,67.94
2018-05-06T05:09:19.484Z,67.93
2018-05-06T05:11:47.036Z,67.95
2018-05-06T05:14:15.870Z,67.42
2018-05-06T05:16:43.476Z,67.38
2018-05-06T05:19:11.742Z,66.90
2018-05-06T05:21:39.285Z,66.74
2018-05-06T05:24:06.820Z,66.09
2018-05-06T05:26:35.022Z,65.60
2018-05-06T05:29:03.311Z,65.82
2018-05-06T05:31:30.859Z,65.94
2018-05-06T05:33:59.019Z,65.98
2018-05-06T05:36:26.550Z,65.47
2018-05-06T05:38:54.581Z,65.50
2018-05-06T05:41:22.287Z,65.43
2018-05-06T05:43:49.839Z,65.29
2018-05-06T05:46:17.423Z,64.67
2018-05-06T05:48:44.968Z,64.62
2018-05-06T05:51:12.655Z,64.62
2018-05-06T05:53:40.211Z,64.28
2018-05-06T05:56:08.331Z,64.27
2018-05-06T05:58:35.903Z,64.11
2018-05-06T06:01:03.439Z,63.33
2018-05-06T06:03:31.034Z,63.46
2018-05-06T06:05:59.038Z,63.37
2018-05-06T06:08:27.081Z,63.22
2018-05-06T06:10:54.620Z,62.72
2018-05-06T06:13:22.870Z,63.25
2018-05-06T06:15:50.462Z,62.70
2018-05-06T06:18:18.903Z,62.56
2018-05-06T06:20:46.432Z,62.37
2018-05-06T06:23:14.153Z,61.64
2018-05-06T06:25:41.738Z,62.09
2018-05-06T06:28:10.073Z,61.89
2018-05-06T06:30:37.788Z,62.01
2018-05-06T06:33:05.319Z,62.10
2018-05-06T06:35:33.380Z,60.92
2018-05-06T06:38:00.917Z,60.35
2018-05-06T06:40:29.517Z,60.42
2018-05-06T06:42:57.055Z,60.62
2018-05-06T06:45:24.670Z,60.81
2018-05-06T06:47:53.114Z,61.27
2018-05-06T06:50:20.707Z,60.99
2018-05-06T06:52:48.301Z,61.18
2018-05-06T06:55:17.000Z,61.29
2018-05-06T06:57:44.580Z,61.20
2018-05-06T07:00:12.112Z,60.47
2018-05-06T07:02:39.795Z,60.58
2018-05-06T07:05:07.890Z,60.20
2018-05-06T07:07:36.023Z,59.54
2018-05-06T07:10:03.597Z,59.44
2018-05-06T07:12:31.385Z,59.03
2018-05-06T07:14:59.519Z,58.54
2018-05-06T07:17:27.790Z,58.22
2018-05-06T07:19:55.512Z,58.24
2018-05-06T07:22:23.039Z,58.25
2018-05-06T07:24:50.629Z,57.74
2018-05-06T07:27:19.167Z,57.75
2018-05-06T07:29:47.413Z,58.22
2018-05-06T07:32:14.957Z,57.82
2018-05-06T07:34:43.623Z,57.19
2018-05-06T07:37:11.167Z,57.05
2018-05-06T07:39:39.152Z,56.72
2018-05-06T07:42:06.698Z,56.03
2018-05-06T07:44:34.224Z,55.64
2018-05-06T07:47:01.787Z,54.84
2018-05-06T07:49:29.330Z,54.93
2018-05-06T07:51:56.908Z,55.39
2018-05-06T07:54:25.143Z,55.51
2018-05-06T07:56:52.735Z,54.16
2018-05-06T07:59:20.285Z,53.92
2018-05-06T08:01:47.983Z,54.36
2018-05-06T08:04:15.545Z,54.16
2018-05-06T08:06:44.056Z,54.62
2018-05-06T08:09:12.581Z,54.60
2018-05-06T08:11:40.130Z,55.20
2018-05-06T08:14:08.290Z,55.49
2018-05-06T08:16:35.943Z,54.62
2018-05-06T08:19:04.150Z,54.89
2018-05-06T08:21:31.696Z,54.90
2018-05-06T08:23:59.242Z,55.09
2018-05-06T08:26:27.797Z,55.25
2018-05-06T08:28:56.900Z,55.47
2018-05-06T08:31:24.516Z,55.08
2018-05-06T08:33:52.774Z,54.43
2018-05-06T08:36:20.393Z,54.72
2018-05-06T08:38:48.732Z,55.00
2018-05-06T08:41:16.278Z,54.75
2018-05-06T08:43:44.020Z,54.65
2018-05-06T08:46:11.607Z,53.98
2018-05-06T08:48:40.160Z,54.46
2018-05-06T08:51:08.778Z,53.88
2018-05-06T08:53:36.314Z,53.08
2018-05-06T08:56:04.679Z,52.16
2018-05-06T08:58:32.223Z,52.64
2018-05-06T09:00:59.799Z,52.99
2018-05-06T09:03:27.368Z,52.04
2018-05-06T09:05:55.768Z,52.84
2018-05-06T09:08:24.550Z,52.99
2018-05-06T09:10:52.213Z,53.64
2018-05-06T09:13:21.362Z,53.40
2018-05-06T09:15:48.919Z,53.38
2018-05-06T09:18:16.987Z,54.03
2018-05-06T09:20:44.630Z,52.84
2018-05-06T09:23:12.159Z,53.08
2018-05-06T09:25:39.762Z,52.84
2018-05-06T09:28:07.963Z,52.87
2018-05-06T09:30:35.531Z,52.25
2018-05-06T09:33:03.069Z,52.62
2018-05-06T09:35:31.069Z,52.93
2018-05-06T09:37:58.600Z,52.11
2018-05-06T09:40:26.895Z,52.23
2018-05-06T09:42:54.495Z,51.38
2018-05-06T09:45:22.115Z,52.15
2018-05-06T09:47:49.934Z,51.78
2018-05-06T09:50:17.441Z,52.24
2018-05-06T09:52:45.006Z,51.38
2018-05-06T09:55:13.171Z,51.60
2018-05-06T09:57:40.699Z,51.86
2018-05-06T10:00:08.277Z,51.52
2018-05-06T10:02:35.853Z,51.19
2018-05-06T10:05:04.204Z,51.18
2018-05-06T10:07:32.487Z,51.26
2018-05-06T10:10:00.033Z,51.76
2018-05-06T10:12:27.583Z,50.99
2018-05-06T10:14:55.866Z,51.44
2018-05-06T10:17:24.163Z,51.37
2018-05-06T10:19:51.703Z,50.68
2018-05-06T10:22:19.304Z,50.68
2018-05-06T10:24:46.839Z,50.03
2018-05-06T10:27:15.017Z,49.95
2018-05-06T10:29:43.439Z,50.57
2018-05-06T10:32:10.983Z,50.32
2018-05-06T10:34:39.326Z,50.20
2018-05-06T10:37:06.849Z,49.92
2018-05-06T10:39:35.320Z,49.70
2018-05-06T10:42:02.859Z,49.34
2018-05-06T10:44:30.393Z,49.47
2018-05-06T10:46:58.004Z,49.77
2018-05-06T10:49:25.777Z,49.58
2018-05-06T10:51:53.279Z,49.07
2018-05-06T10:54:21.287Z,48.89
2018-05-06T10:56:49.567Z,48.23
2018-05-06T10:59:17.095Z,48.49
2018-05-06T11:01:45.231Z,48.91
2018-05-06T11:04:12.804Z,49.13
2018-05-06T11:06:40.909Z,48.76
2018-05-06T11:09:09.233Z,48.44
2018-05-06T11:11:36.762Z,47.66
2018-05-06T11:14:05.089Z,47.30
2018-05-06T11:16:32.627Z,48.21
2018-05-06T11:19:00.599Z,47.17
2018-05-06T11:21:28.156Z,46.38
2018-05-06T11:23:55.739Z,46.22
2018-05-06T11:26:24.040Z,46.86
2018-05-06T11:28:52.362Z,47.03
2018-05-06T11:31:19.895Z,47.45
2018-05-06T11:33:48.156Z,47.11
2018-05-06T11:36:15.631Z,47.15
2018-05-06T11:38:43.860Z,47.46
2018-05-06T11:41:11.404Z,46.81
2018-05-06T11:43:38.953Z,46.86
2018-05-06T11:46:06.517Z,47.28
2018-05-06T11:48:34.048Z,46.21
2018-05-06T11:51:01.685Z,46.50
2018-05-06T11:53:29.266Z,46.46
2018-05-06T11:55:57.390Z,46.06
2018-05-06T11:58:24.948Z,46.30
2018-05-06T12:00:52.600Z,45.16
2018-05-06T12:03:20.160Z,45.45
2018-05-06T12:05:48.268Z,45.20
2018-05-06T12:08:16.517Z,45.76
2018-05-06T12:10:44.691Z,45.36
2018-05-06T12:13:12.350Z,44.92
2018-05-06T12:15:40.499Z,44.01
2018-05-06T12:18:08.914Z,44.25
2018-05-06T12:20:36.457Z,44.44
2018-05-06T12:23:04.006Z,44.38
2018-05-06T12:25:31.571Z,43.96
2018-05-06T12:27:59.529Z,43.39
2018-05-06T12:30:27.059Z,43.42
2018-05-06T12:32:54.728Z,43.58
2018-05-06T12:35:23.080Z,43.44
2018-05-06T12:37:50.667Z,42.97
2018-05-06T12:40:18.757Z,43.26
2018-05-06T12:42:46.299Z,41.86
2018-05-06T12:45:13.839Z,41.74
2018-05-06T12:47:41.435Z,41.20
2018-05-06T12:50:08.976Z,41.73
2018-05-06T12:52:36.659Z,41.78
2018-05-06T12:55:04.972Z,42.22
2018-05-06T12:57:32.520Z,40.95
2018-05-06T13:00:00.053Z,41.65
2018-05-06T13:02:27.677Z,41.55
2018-05-06T13:04:56.051Z,41.38
2018-05-06T13:07:24.274Z,41.79
2018-05-06T13:09:52.842Z,42.15
2018-05-06T13:12:20.435Z,41.04
2018-05-06T13:14:48.431Z,41.25
2018-05-06T13:17:17.297Z,41.14
2018-05-06T13:19:44.830Z,41.25
2018-05-06T13:22:12.354Z,41.30
2018-05-06T13:24:40.006Z,41.40
2018-05-06T13:27:08.196Z,41.53
2018-05-06T13:29:36.625Z,41.25
2018-05-06T13:32:04.189Z,41.39
2018-05-06T13:34:32.539Z,41.27
2018-05-06T13:37:00.078Z,41.30
2018-05-06T13:39:28.342Z,40.47
2018-05-06T13:41:55.907Z,40.78
2018-05-06T13:44:23.440Z,40.83
2018-05-06T13:46:51.285Z,40.50
2018-05-06T13:49:18.844Z,40.11
2018-05-06T13:51:46.570Z,40.66
2018-05-06T13:54:14.248Z,39.54
2018-05-06T13:56:42.445Z,40.02
2018-05-06T13:59:10.018Z,39.81
2018-05-06T14:01:37.562Z,39.37
2018-05-06T14:04:06.101Z,38.63
2018-05-06T14:06:34.130Z,38.98
2018-05-06T14:09:02.412Z,39.41
2018-05-06T14:11:29.944Z,39.60
2018-05-06T14:13:58.102Z,39.29
2018-05-06T14:16:25.640Z,38.13
2018-05-06T14:18:53.888Z,38.56
2018-05-06T14:21:21.470Z,38.43
2018-05-06T14:23:49.007Z,38.83
2018-05-06T14:26:17.249Z,38.82
2018-05-06T14:28:45.395Z,38.93
2018-05-06T14:31:13.008Z,38.53
2018-05-06T14:33:41.259Z,38.64
2018-05-06T14:36:08.800Z,38.12
2018-05-06T14:38:36.981Z,38.04
2018-05-06T14:41:04.547Z,38.36
2018-05-06T14:43:32.091Z,38.18
2018-05-06T14:46:00.251Z,38.01
2018-05-06T14:48:27.786Z,38.07
2018-05-06T14:50:55.710Z,38.15
2018-05-06T14:53:23.382Z,38.13
2018-05-06T14:55:51.473Z,38.06
2018-05-06T14:58:19.743Z,38.21
2018-05-06T15:00:47.319Z,38.39
2018-05-06T15:03:14.928Z,37.86
2018-05-06T15:05:42.990Z,38.51
2018-05-06T15:08:11.271Z,38.33
2018-05-06T15:10:38.854Z,37.90
2018-05-06T15:13:06.375Z,37.86
2018-05-06T15:15:34.596Z,38.20
2018-05-06T15:18:02.843Z,37.58
2018-05-06T15:20:30.386Z,37.35
2018-05-06T15:22:57.915Z,37.64
2018-05-06T15:25:25.562Z,37.51
2018-05-06T15:27:54.005Z,36.78
2018-05-06T15:30:21.547Z,36.94
2018-05-06T15:32:49.102Z,36.02
2018-05-06T15:35:17.225Z,35.68
2018-05-06T15:37:44.763Z,35.76
2018-05-06T15:40:12.667Z,35.35
2018-05-06T15:42:40.204Z,34.13
2018-05-06T15:45:07.763Z,33.81
2018-05-06T15:47:35.659Z,33.65
2018-05-06T15:50:03.642Z,32.76
2018-05-06T15:52:31.176Z,32.21
2018-05-06T15:54:59.441Z,31.33
2018-05-06T15:57:26.971Z,30.51
2018-05-06T15:59:54.508Z,30.03
2018-05-06T16:05:18.046Z,29.62
2018-05-06T16:07:46.279Z,28.79
2018-05-06T16:10:13.827Z,28.70
2018-05-06T16:12:41.357Z,28.81
2018-05-06T16:15:09.527Z,28.13
2018-05-06T16:17:37.616Z,28.61
2018-05-06T16:20:06.007Z,29.37
2018-05-06T16:22:33.573Z,30.24
2018-05-06T16:25:01.129Z,30.57
2018-05-06T16:27:29.238Z,29.73
2018-05-06T16:29:56.786Z,29.67
2018-05-06T16:32:24.406Z,30.01
2018-05-06T16:34:52.494Z,30.09
2018-05-06T16:37:20.039Z,29.78
2018-05-06T16:39:48.100Z,29.46
2018-05-06T16:42:15.638Z,29.13
2018-05-06T16:44:43.302Z,28.87
2018-05-06T16:47:11.880Z,28.76
2018-05-06T16:49:39.427Z,28.26
2018-05-06T16:52:06.960Z,28.53
2018-05-06T16:54:35.140Z,29.14
2018-05-06T16:57:03.241Z,29.02
2018-05-06T16:59:30.834Z,28.86
2018-05-06T17:01:58.386Z,28.89
2018-05-06T17:04:25.972Z,29.11
2018-05-06T17:06:54.099Z,29.29
2018-05-06T17:09:21.649Z,29.36
2018-05-06T17:11:49.197Z,28.89
2018-05-06T17:14:17.250Z,28.97
2018-05-06T17:16:44.929Z,28.81
2018-05-06T17:19:13.047Z,29.17
2018-05-06T17:21:41.072Z,29.59
2018-05-06T17:24:08.631Z,29.62
2018-05-06T17:26:36.557Z,29.67
2018-05-06T17:29:04.113Z,29.96
2018-05-06T17:31:31.694Z,30.42
2018-05-06T17:33:59.656Z,30.14
2018-05-06T17:36:27.190Z,30.04
2018-05-06T17:38:55.492Z,30.51
2018-05-06T17:41:23.038Z,30.70
2018-05-06T17:43:50.573Z,30.42
2018-05-06T17:46:18.976Z,30.76
2018-05-06T17:48:46.697Z,30.74
2018-05-06T17:51:14.244Z,30.85
2018-05-06T17:53:41.855Z,30.94
2018-05-06T17:56:09.932Z,31.27
2018-05-06T17:58:37.481Z,31.80
2018-05-06T18:01:05.051Z,32.31
2018-05-06T18:03:32.643Z,32.65
2018-05-06T18:06:00.834Z,32.22
2018-05-06T18:08:28.370Z,32.66
2018-05-06T18:10:55.900Z,33.01
2018-05-06T18:13:24.373Z,33.87
2018-05-06T18:15:51.991Z,35.16
2018-05-06T18:18:20.135Z,36.00
2018-05-06T18:20:48.534Z,36.88
2018-05-06T18:23:16.186Z,37.50
2018-05-06T18:25:43.727Z,38.73
2018-05-06T18:28:11.835Z,39.55
2018-05-06T18:30:39.502Z,40.68
2018-05-06T18:33:07.594Z,41.49
2018-05-06T18:35:35.888Z,42.37
2018-05-06T18:38:03.656Z,42.86
2018-05-06T18:40:31.875Z,43.63
2018-05-06T18:42:59.499Z,44.60
2018-05-06T18:45:27.049Z,45.23
2018-05-06T18:47:55.537Z,45.62
2018-05-06T18:50:23.162Z,46.34
2018-05-06T18:52:50.810Z,46.62
2018-05-06T18:55:19.039Z,47.09
2018-05-06T18:57:46.640Z,47.75
2018-05-06T19:00:14.187Z,47.66
2018-05-06T19:02:41.844Z,48.71
2018-05-06T19:05:10.499Z,47.84
2018-05-06T19:07:38.028Z,48.27
2018-05-06T19:10:05.729Z,48.65
2018-05-06T19:12:33.301Z,48.77
2018-05-06T19:15:01.258Z,48.87
2018-05-06T19:17:29.502Z,49.24
2018-05-06T19:19:57.721Z,49.52
2018-05-06T19:22:26.063Z,49.76
2018-05-06T19:24:53.615Z,51.07
2018-05-06T19:27:21.862Z,51.19
2018-05-06T19:29:49.413Z,51.42
2018-05-06T19:32:17.681Z,51.96
2018-05-06T19:34:45.790Z,52.65
2018-05-06T19:37:13.366Z,51.96
2018-05-06T19:39:41.663Z,52.33
2018-05-06T19:42:09.215Z,52.81
2018-05-06T19:44:36.812Z,53.20
2018-05-06T19:47:05.019Z,54.01
2018-05-06T19:49:32.579Z,54.59
2018-05-06T19:52:00.149Z,55.46
2018-05-06T19:54:28.634Z,55.62
2018-05-06T19:56:56.233Z,55.21
2018-05-06T19:59:23.846Z,56.07
2018-05-06T20:01:51.467Z,55.70
2018-05-06T20:04:19.032Z,55.53
2018-05-06T20:06:48.005Z,56.10
2018-05-06T20:09:15.588Z,56.45
2018-05-06T20:11:43.169Z,56.72
2018-05-06T20:14:11.381Z,57.10
2018-05-06T20:16:38.954Z,57.14
2018-05-06T20:19:07.204Z,57.61
2018-05-06T20:21:36.751Z,57.12
2018-05-06T20:24:04.318Z,58.06
2018-05-06T20:26:32.363Z,58.47
2018-05-06T20:28:59.913Z,58.43
2018-05-06T20:31:28.012Z,59.07
2018-05-06T20:33:55.970Z,58.90
2018-05-06T20:36:23.570Z,59.31
2018-05-06T20:38:51.991Z,59.43
2018-05-06T20:41:19.556Z,59.32
2018-05-06T20:43:47.242Z,59.56
2018-05-06T20:46:15.187Z,59.57
2018-05-06T20:48:42.732Z,59.71
2018-05-06T20:51:10.275Z,60.45
2018-05-06T20:53:37.832Z,59.98
2018-05-06T20:56:06.289Z,60.21
2018-05-06T20:58:33.866Z,60.32
2018-05-06T21:01:01.400Z,60.20
2018-05-06T21:03:29.610Z,60.54
2018-05-06T21:05:57.693Z,60.62
2018-05-06T21:08:25.335Z,61.83
2018-05-06T21:10:52.871Z,62.07
2018-05-06T21:13:21.570Z,62.00
2018-05-06T21:15:49.092Z,62.50
2018-05-06T21:18:17.107Z,62.90
2018-05-06T21:20:45.324Z,62.73
2018-05-06T21:23:12.869Z,62.38
2018-05-06T21:25:40.427Z,62.51
2018-05-06T21:28:08.558Z,62.43
2018-05-06T21:30:36.129Z,62.07
2018-05-06T21:33:03.607Z,61.71
2018-05-06T21:35:33.025Z,61.77
2018-05-06T21:38:00.527Z,61.51
2018-05-06T21:40:28.803Z,61.61
2018-05-06T21:42:56.389Z,62.36
2018-05-06T21:45:24.008Z,62.10
2018-05-06T21:47:52.674Z,62.59
2018-05-06T21:50:20.301Z,62.41
2018-05-06T21:52:47.885Z,62.79
2018-05-06T21:55:16.899Z,62.89
2018-05-06T21:57:44.449Z,63.48
2018-05-06T22:00:12.006Z,63.94
2018-05-06T22:02:39.565Z,64.59
2018-05-06T22:05:07.791Z,65.08
2018-05-06T22:07:35.466Z,66.09
2018-05-06T22:10:02.890Z,65.85
2018-05-06T22:16:01.571Z,66.50
2018-05-06T22:18:30.022Z,66.18
2018-05-06T22:20:58.238Z,67.09
2018-05-06T22:23:25.790Z,67.24
2018-05-06T22:25:54.154Z,66.73
2018-05-06T22:28:21.706Z,67.05
2018-05-06T22:30:49.252Z,67.25
2018-05-06T22:33:18.018Z,67.41
2018-05-06T22:35:45.603Z,67.06
2018-05-06T22:38:13.216Z,67.09
2018-05-06T22:40:41.390Z,66.79
2018-05-06T22:43:08.928Z,66.34
2018-05-06T22:45:37.520Z,66.21
2018-05-06T22:48:05.795Z,66.02
2018-05-06T22:50:33.342Z,65.95
2018-05-06T22:53:00.878Z,66.36
2018-05-06T22:55:28.967Z,66.77
2018-05-06T22:57:56.521Z,67.01
2018-05-06T23:00:24.652Z,67.05
2018-05-06T23:02:53.015Z,66.95
2018-05-06T23:05:21.343Z,67.03
2018-05-06T23:07:48.941Z,66.96
2018-05-06T23:10:16.982Z,66.89
2018-05-06T23:12:44.575Z,66.67
2018-05-06T23:15:12.955Z,66.43
2018-05-06T23:17:41.246Z,66.13
2018-05-06T23:20:09.372Z,66.26
2018-05-06T23:22:37.392Z,66.27
2018-05-06T23:25:04.936Z,66.21
2018-05-06T23:27:33.098Z,66.23
2018-05-06T23:30:00.667Z,66.29
2018-05-06T23:32:28.234Z,66.57
2018-05-06T23:34:56.256Z,66.79
2018-05-06T23:37:23.830Z,67.18
2018-05-06T23:39:52.069Z,67.48
2018-05-06T23:42:19.608Z,67.46
2018-05-06T23:44:47.368Z,67.60
2018-05-06T23:47:14.967Z,67.76
2018-05-06T23:49:42.829Z,68.60
2018-05-06T23:52:10.388Z,68.56
2018-05-06T23:54:38.890Z,68.47
2018-05-06T23:57:06.428Z,68.17
2018-05-06T23:59:34.010Z,67.84
